Arroyo Grande, California
Current Conditions -  °F | °C
As of 5:56 PM on Friday 24 Oct 2014 (Local Time) from KSBP Reporting Station
Clear Clear  
Wind Chill: 65°   Ceiling: Unl
Heat Index: 65°   Visibility: 10mi
Dew Point: 57°   Wind: 9mph
Humidity: 75%   Direction: 310°NW
Pressure: 29.94"   Gusts: NA
Location:  35.12°N, 120.57°W
Report Text: KSBP 250056Z 31008KT 10SM CLR 18/14 A2994 RMK AO2 SLP137 T01830139
Loading
Personal Weather Stations






























Interactive Weather Map
Tropical Storm Tracking
New forecast layout! Learn more

10-Day Weather Forecast

Advertisements
Track Severe Weather on mobile